Presidente Olegario, Brazil
Current Conditions -  °F | °C
As of 6:00 PM on Friday 28 Nov 2014 (Local Time) from SBAX Reporting Station
Drizzle Drizzle  
Wind Chill: 75°   Ceiling: 1000
Heat Index: 75°   Visibility: 4mi
Dew Point: 70°   Wind: 2mph
Humidity: 83%   Direction: 240°WSW
Pressure: 30.03"   Gusts: NA
Location:  18.42°S, 46.42°W
Report Text: SBAX 282000Z 24002KT 7000 -DZ BKN010 SCT015 24/21 Q1017
Loading
Personal Weather Stations






























Interactive Weather Map New forecast layout! Learn more

10-Day Weather Forecast

Advertisements
Track Severe Weather on mobile